sensor_id;sensor_type;location;lat;lon;timestamp;P1;durP1;ratioP1;P2;durP2;ratioP2
7074;SDS011;3578;51.568;6.932;2023-08-31T00:00:22;13.03;;;7.47;;
7074;SDS011;3578;51.568;6.932;2023-08-31T00:02:49;9.63;;;7.47;;
7074;SDS011;3578;51.568;6.932;2023-08-31T00:05:16;10.83;;;6.37;;
7074;SDS011;3578;51.568;6.932;2023-08-31T00:07:44;10.30;;;6.93;;
7074;SDS011;3578;51.568;6.932;2023-08-31T00:10:13;9.67;;;6.70;;
7074;SDS011;3578;51.568;6.932;2023-08-31T00:12:42;8.80;;;7.70;;
7074;SDS011;3578;51.568;6.932;2023-08-31T00:15:09;14.73;;;7.70;;
7074;SDS011;3578;51.568;6.932;2023-08-31T00:17:36;10.30;;;6.10;;
7074;SDS011;3578;51.568;6.932;2023-08-31T00:20:04;11.23;;;7.53;;
7074;SDS011;3578;51.568;6.932;2023-08-31T00:22:33;9.20;;;7.80;;
7074;SDS011;3578;51.568;6.932;2023-08-31T00:25:00;12.40;;;8.00;;
7074;SDS011;3578;51.568;6.932;2023-08-31T00:27:28;9.07;;;7.17;;
7074;SDS011;3578;51.568;6.932;2023-08-31T00:29:56;8.07;;;6.97;;
7074;SDS011;3578;51.568;6.932;2023-08-31T00:32:23;11.73;;;7.27;;
7074;SDS011;3578;51.568;6.932;2023-08-31T00:34:50;10.93;;;7.90;;
7074;SDS011;3578;51.568;6.932;2023-08-31T00:37:17;14.07;;;7.27;;
7074;SDS011;3578;51.568;6.932;2023-08-31T00:39:46;12.03;;;6.97;;
7074;SDS011;3578;51.568;6.932;2023-08-31T00:42:16;10.67;;;7.00;;
7074;SDS011;3578;51.568;6.932;2023-08-31T00:44:45;12.40;;;7.50;;
7074;SDS011;3578;51.568;6.932;2023-08-31T00:47:12;10.33;;;6.87;;
7074;SDS011;3578;51.568;6.932;2023-08-31T00:49:40;9.60;;;7.00;;
7074;SDS011;3578;51.568;6.932;2023-08-31T00:52:07;7.23;;;6.50;;
7074;SDS011;3578;51.568;6.932;2023-08-31T00:54:34;13.10;;;7.43;;
7074;SDS011;3578;51.568;6.932;2023-08-31T00:57:02;16.17;;;7.73;;
7074;SDS011;3578;51.568;6.932;2023-08-31T00:59:30;10.23;;;6.80;;
7074;SDS011;3578;51.568;6.932;2023-08-31T01:01:59;13.80;;;6.97;;
7074;SDS011;3578;51.568;6.932;2023-08-31T01:04:36;8.73;;;6.60;;
7074;SDS011;3578;51.568;6.932;2023-08-31T01:07:14;9.17;;;6.83;;
7074;SDS011;3578;51.568;6.932;2023-08-31T01:09:54;7.10;;;6.50;;
7074;SDS011;3578;51.568;6.932;2023-08-31T01:12:34;9.13;;;7.10;;
7074;SDS011;3578;51.568;6.932;2023-08-31T01:15:10;9.40;;;6.80;;
7074;SDS011;3578;51.568;6.932;2023-08-31T01:17:42;7.87;;;6.60;;
7074;SDS011;3578;51.568;6.932;2023-08-31T01:20:15;8.93;;;6.00;;
7074;SDS011;3578;51.568;6.932;2023-08-31T01:22:55;10.90;;;6.97;;
7074;SDS011;3578;51.568;6.932;2023-08-31T01:25:27;10.00;;;7.00;;
7074;SDS011;3578;51.568;6.932;2023-08-31T01:27:55;8.60;;;7.30;;
7074;SDS011;3578;51.568;6.932;2023-08-31T01:30:24;7.37;;;6.50;;
7074;SDS011;3578;51.568;6.932;2023-08-31T01:32:51;12.90;;;7.43;;
7074;SDS011;3578;51.568;6.932;2023-08-31T01:35:18;11.90;;;7.80;;
7074;SDS011;3578;51.568;6.932;2023-08-31T01:37:47;10.57;;;7.93;;
7074;SDS011;3578;51.568;6.932;2023-08-31T01:40:22;13.00;;;8.00;;
7074;SDS011;3578;51.568;6.932;2023-08-31T01:42:58;11.47;;;7.33;;
7074;SDS011;3578;51.568;6.932;2023-08-31T01:45:28;10.77;;;8.50;;
7074;SDS011;3578;51.568;6.932;2023-08-31T01:47:56;9.00;;;8.20;;
7074;SDS011;3578;51.568;6.932;2023-08-31T01:50:23;14.93;;;8.03;;
7074;SDS011;3578;51.568;6.932;2023-08-31T01:52:51;11.50;;;8.20;;
7074;SDS011;3578;51.568;6.932;2023-08-31T01:55:19;9.80;;;8.40;;
7074;SDS011;3578;51.568;6.932;2023-08-31T01:57:46;13.10;;;8.43;;
7074;SDS011;3578;51.568;6.932;2023-08-31T02:00:16;9.97;;;8.97;;
7074;SDS011;3578;51.568;6.932;2023-08-31T02:02:44;8.77;;;7.83;;
7074;SDS011;3578;51.568;6.932;2023-08-31T02:05:11;12.47;;;8.90;;
7074;SDS011;3578;51.568;6.932;2023-08-31T02:07:38;10.90;;;9.50;;
7074;SDS011;3578;51.568;6.932;2023-08-31T02:10:08;10.63;;;8.70;;
7074;SDS011;3578;51.568;6.932;2023-08-31T02:12:35;9.43;;;8.53;;
7074;SDS011;3578;51.568;6.932;2023-08-31T02:15:03;9.80;;;8.90;;
7074;SDS011;3578;51.568;6.932;2023-08-31T02:17:32;10.63;;;8.60;;
7074;SDS011;3578;51.568;6.932;2023-08-31T02:20:00;11.33;;;9.83;;
7074;SDS011;3578;51.568;6.932;2023-08-31T02:22:29;15.00;;;10.27;;
7074;SDS011;3578;51.568;6.932;2023-08-31T02:24:57;11.87;;;9.43;;
7074;SDS011;3578;51.568;6.932;2023-08-31T02:27:24;11.40;;;9.73;;
7074;SDS011;3578;51.568;6.932;2023-08-31T02:29:51;10.60;;;9.47;;
7074;SDS011;3578;51.568;6.932;2023-08-31T02:32:18;15.10;;;9.67;;
7074;SDS011;3578;51.568;6.932;2023-08-31T02:34:47;12.80;;;9.80;;
7074;SDS011;3578;51.568;6.932;2023-08-31T02:37:14;12.20;;;10.27;;
7074;SDS011;3578;51.568;6.932;2023-08-31T02:39:41;12.97;;;9.70;;
7074;SDS011;3578;51.568;6.932;2023-08-31T02:42:11;11.70;;;9.30;;
7074;SDS011;3578;51.568;6.932;2023-08-31T02:44:39;13.97;;;10.30;;
7074;SDS011;3578;51.568;6.932;2023-08-31T02:47:06;15.80;;;10.93;;
7074;SDS011;3578;51.568;6.932;2023-08-31T02:49:33;11.60;;;9.87;;
7074;SDS011;3578;51.568;6.932;2023-08-31T02:52:02;11.23;;;10.13;;
7074;SDS011;3578;51.568;6.932;2023-08-31T02:54:29;12.73;;;10.13;;
7074;SDS011;3578;51.568;6.932;2023-08-31T02:56:56;12.20;;;9.67;;
7074;SDS011;3578;51.568;6.932;2023-08-31T02:59:23;10.87;;;9.77;;
7074;SDS011;3578;51.568;6.932;2023-08-31T03:01:50;16.77;;;11.23;;
7074;SDS011;3578;51.568;6.932;2023-08-31T03:04:17;13.57;;;10.73;;
7074;SDS011;3578;51.568;6.932;2023-08-31T03:06:44;11.77;;;10.37;;
7074;SDS011;3578;51.568;6.932;2023-08-31T03:09:12;12.50;;;11.30;;
7074;SDS011;3578;51.568;6.932;2023-08-31T03:11:39;11.37;;;10.33;;
7074;SDS011;3578;51.568;6.932;2023-08-31T03:14:06;16.00;;;11.53;;
7074;SDS011;3578;51.568;6.932;2023-08-31T03:16:34;12.50;;;11.20;;
7074;SDS011;3578;51.568;6.932;2023-08-31T03:19:01;18.57;;;11.93;;
7074;SDS011;3578;51.568;6.932;2023-08-31T03:21:28;14.40;;;12.00;;
7074;SDS011;3578;51.568;6.932;2023-08-31T03:23:55;14.73;;;12.20;;
7074;SDS011;3578;51.568;6.932;2023-08-31T03:26:24;12.40;;;11.03;;
7074;SDS011;3578;51.568;6.932;2023-08-31T03:28:51;14.33;;;11.43;;
7074;SDS011;3578;51.568;6.932;2023-08-31T03:31:18;12.47;;;11.27;;
7074;SDS011;3578;51.568;6.932;2023-08-31T03:33:45;13.37;;;12.07;;
7074;SDS011;3578;51.568;6.932;2023-08-31T03:36:12;16.00;;;12.53;;
7074;SDS011;3578;51.568;6.932;2023-08-31T03:38:39;16.47;;;12.60;;
7074;SDS011;3578;51.568;6.932;2023-08-31T03:41:06;16.47;;;12.33;;
7074;SDS011;3578;51.568;6.932;2023-08-31T03:43:35;13.70;;;11.13;;
7074;SDS011;3578;51.568;6.932;2023-08-31T03:46:01;14.03;;;11.67;;
7074;SDS011;3578;51.568;6.932;2023-08-31T03:48:28;16.47;;;12.37;;
7074;SDS011;3578;51.568;6.932;2023-08-31T03:50:55;18.40;;;12.70;;
7074;SDS011;3578;51.568;6.932;2023-08-31T03:53:22;14.13;;;12.63;;
7074;SDS011;3578;51.568;6.932;2023-08-31T03:55:49;15.40;;;12.70;;
7074;SDS011;3578;51.568;6.932;2023-08-31T03:58:16;16.50;;;13.37;;
7074;SDS011;3578;51.568;6.932;2023-08-31T04:00:45;18.17;;;14.27;;
7074;SDS011;3578;51.568;6.932;2023-08-31T04:03:15;16.23;;;13.83;;
7074;SDS011;3578;51.568;6.932;2023-08-31T04:05:42;18.47;;;13.40;;
7074;SDS011;3578;51.568;6.932;2023-08-31T04:08:09;16.33;;;14.83;;
7074;SDS011;3578;51.568;6.932;2023-08-31T04:10:36;20.40;;;16.40;;
7074;SDS011;3578;51.568;6.932;2023-08-31T04:13:03;17.07;;;15.37;;
7074;SDS011;3578;51.568;6.932;2023-08-31T04:15:30;18.43;;;16.60;;
7074;SDS011;3578;51.568;6.932;2023-08-31T04:18:00;19.30;;;16.27;;
7074;SDS011;3578;51.568;6.932;2023-08-31T04:20:27;23.40;;;17.73;;
7074;SDS011;3578;51.568;6.932;2023-08-31T04:22:54;19.93;;;17.17;;
7074;SDS011;3578;51.568;6.932;2023-08-31T04:25:21;20.43;;;17.87;;
7074;SDS011;3578;51.568;6.932;2023-08-31T04:27:48;21.50;;;18.97;;
7074;SDS011;3578;51.568;6.932;2023-08-31T04:30:15;18.73;;;16.80;;
7074;SDS011;3578;51.568;6.932;2023-08-31T04:32:42;21.50;;;18.77;;
7074;SDS011;3578;51.568;6.932;2023-08-31T04:35:13;20.60;;;18.47;;
7074;SDS011;3578;51.568;6.932;2023-08-31T04:37:40;23.73;;;19.10;;
7074;SDS011;3578;51.568;6.932;2023-08-31T04:40:07;21.97;;;19.67;;
7074;SDS011;3578;51.568;6.932;2023-08-31T04:42:37;25.63;;;20.93;;
7074;SDS011;3578;51.568;6.932;2023-08-31T04:45:05;24.27;;;19.80;;
7074;SDS011;3578;51.568;6.932;2023-08-31T04:47:33;25.27;;;19.03;;
7074;SDS011;3578;51.568;6.932;2023-08-31T04:50:01;28.50;;;21.27;;
7074;SDS011;3578;51.568;6.932;2023-08-31T04:52:29;29.87;;;20.97;;
7074;SDS011;3578;51.568;6.932;2023-08-31T04:54:56;25.53;;;22.57;;
7074;SDS011;3578;51.568;6.932;2023-08-31T04:57:23;28.40;;;22.37;;
7074;SDS011;3578;51.568;6.932;2023-08-31T04:59:51;31.13;;;22.77;;
7074;SDS011;3578;51.568;6.932;2023-08-31T05:02:18;26.13;;;22.20;;
7074;SDS011;3578;51.568;6.932;2023-08-31T05:04:45;24.50;;;21.47;;
7074;SDS011;3578;51.568;6.932;2023-08-31T05:07:12;28.60;;;21.87;;
7074;SDS011;3578;51.568;6.932;2023-08-31T05:09:41;28.70;;;21.30;;
7074;SDS011;3578;51.568;6.932;2023-08-31T05:12:08;26.97;;;19.40;;
7074;SDS011;3578;51.568;6.932;2023-08-31T05:14:35;28.07;;;19.90;;
7074;SDS011;3578;51.568;6.932;2023-08-31T05:17:04;29.27;;;20.33;;
7074;SDS011;3578;51.568;6.932;2023-08-31T05:19:31;22.17;;;18.33;;
7074;SDS011;3578;51.568;6.932;2023-08-31T05:21:58;24.83;;;19.50;;
7074;SDS011;3578;51.568;6.932;2023-08-31T05:24:25;24.93;;;18.80;;
7074;SDS011;3578;51.568;6.932;2023-08-31T05:26:54;28.93;;;20.80;;
7074;SDS011;3578;51.568;6.932;2023-08-31T05:29:20;24.23;;;21.20;;
7074;SDS011;3578;51.568;6.932;2023-08-31T05:31:47;27.50;;;21.03;;
7074;SDS011;3578;51.568;6.932;2023-08-31T05:34:15;26.63;;;22.70;;
7074;SDS011;3578;51.568;6.932;2023-08-31T05:36:43;35.60;;;23.93;;
7074;SDS011;3578;51.568;6.932;2023-08-31T05:39:09;29.67;;;25.20;;
7074;SDS011;3578;51.568;6.932;2023-08-31T05:41:39;30.70;;;25.80;;
7074;SDS011;3578;51.568;6.932;2023-08-31T05:44:08;31.43;;;25.33;;
7074;SDS011;3578;51.568;6.932;2023-08-31T05:46:36;29.70;;;25.40;;
7074;SDS011;3578;51.568;6.932;2023-08-31T05:49:03;28.20;;;23.17;;
7074;SDS011;3578;51.568;6.932;2023-08-31T05:51:30;29.50;;;24.10;;
7074;SDS011;3578;51.568;6.932;2023-08-31T05:53:57;27.43;;;23.57;;
7074;SDS011;3578;51.568;6.932;2023-08-31T05:56:24;28.40;;;22.33;;
7074;SDS011;3578;51.568;6.932;2023-08-31T05:58:51;28.97;;;22.80;;
7074;SDS011;3578;51.568;6.932;2023-08-31T06:01:21;29.40;;;22.07;;
7074;SDS011;3578;51.568;6.932;2023-08-31T06:03:48;25.27;;;21.27;;
7074;SDS011;3578;51.568;6.932;2023-08-31T06:06:15;29.57;;;20.53;;
7074;SDS011;3578;51.568;6.932;2023-08-31T06:08:42;27.60;;;23.47;;
7074;SDS011;3578;51.568;6.932;2023-08-31T06:11:09;25.90;;;22.57;;
7074;SDS011;3578;51.568;6.932;2023-08-31T06:13:38;30.53;;;22.37;;
7074;SDS011;3578;51.568;6.932;2023-08-31T06:16:05;26.47;;;22.80;;
7074;SDS011;3578;51.568;6.932;2023-08-31T06:18:33;30.33;;;22.43;;
7074;SDS011;3578;51.568;6.932;2023-08-31T06:21:00;25.87;;;21.63;;
7074;SDS011;3578;51.568;6.932;2023-08-31T06:23:27;23.20;;;20.00;;
7074;SDS011;3578;51.568;6.932;2023-08-31T06:25:54;26.70;;;20.63;;
7074;SDS011;3578;51.568;6.932;2023-08-31T06:28:21;23.00;;;18.33;;
7074;SDS011;3578;51.568;6.932;2023-08-31T06:30:48;22.53;;;19.63;;
7074;SDS011;3578;51.568;6.932;2023-08-31T06:33:15;27.73;;;18.60;;
7074;SDS011;3578;51.568;6.932;2023-08-31T06:35:46;20.13;;;16.90;;
7074;SDS011;3578;51.568;6.932;2023-08-31T06:38:16;21.27;;;16.13;;
7074;SDS011;3578;51.568;6.932;2023-08-31T06:40:43;26.33;;;16.23;;
7074;SDS011;3578;51.568;6.932;2023-08-31T06:43:10;19.87;;;15.50;;
7074;SDS011;3578;51.568;6.932;2023-08-31T06:45:37;19.90;;;14.60;;
7074;SDS011;3578;51.568;6.932;2023-08-31T06:48:05;17.00;;;13.83;;
7074;SDS011;3578;51.568;6.932;2023-08-31T06:50:33;13.47;;;11.67;;
7074;SDS011;3578;51.568;6.932;2023-08-31T06:53:02;12.23;;;10.90;;
7074;SDS011;3578;51.568;6.932;2023-08-31T06:55:30;16.23;;;11.53;;
7074;SDS011;3578;51.568;6.932;2023-08-31T06:57:58;14.00;;;11.10;;
7074;SDS011;3578;51.568;6.932;2023-08-31T07:00:25;13.43;;;12.10;;
7074;SDS011;3578;51.568;6.932;2023-08-31T07:02:52;12.83;;;11.27;;
7074;SDS011;3578;51.568;6.932;2023-08-31T07:05:19;12.33;;;10.53;;
7074;SDS011;3578;51.568;6.932;2023-08-31T07:07:51;14.67;;;11.90;;
7074;SDS011;3578;51.568;6.932;2023-08-31T07:10:20;20.00;;;10.80;;
7074;SDS011;3578;51.568;6.932;2023-08-31T07:12:47;14.63;;;10.50;;
7074;SDS011;3578;51.568;6.932;2023-08-31T07:15:15;10.70;;;9.00;;
7074;SDS011;3578;51.568;6.932;2023-08-31T07:17:42;12.10;;;8.50;;
7074;SDS011;3578;51.568;6.932;2023-08-31T07:20:09;13.63;;;8.27;;
7074;SDS011;3578;51.568;6.932;2023-08-31T07:22:38;11.17;;;8.00;;
7074;SDS011;3578;51.568;6.932;2023-08-31T07:25:06;11.47;;;7.80;;
7074;SDS011;3578;51.568;6.932;2023-08-31T07:27:35;13.53;;;7.90;;
7074;SDS011;3578;51.568;6.932;2023-08-31T07:30:03;13.43;;;8.37;;
7074;SDS011;3578;51.568;6.932;2023-08-31T07:32:31;11.33;;;7.90;;
7074;SDS011;3578;51.568;6.932;2023-08-31T07:34:59;10.50;;;6.87;;
7074;SDS011;3578;51.568;6.932;2023-08-31T07:37:26;8.30;;;6.73;;
7074;SDS011;3578;51.568;6.932;2023-08-31T07:39:53;9.50;;;6.03;;
7074;SDS011;3578;51.568;6.932;2023-08-31T07:42:20;7.27;;;5.57;;
7074;SDS011;3578;51.568;6.932;2023-08-31T07:44:48;12.13;;;5.00;;
7074;SDS011;3578;51.568;6.932;2023-08-31T07:47:16;4.83;;;4.50;;
7074;SDS011;3578;51.568;6.932;2023-08-31T07:49:42;4.70;;;4.20;;
7074;SDS011;3578;51.568;6.932;2023-08-31T07:52:09;7.30;;;3.93;;
7074;SDS011;3578;51.568;6.932;2023-08-31T07:54:36;6.50;;;3.53;;
7074;SDS011;3578;51.568;6.932;2023-08-31T07:57:03;4.20;;;3.70;;
7074;SDS011;3578;51.568;6.932;2023-08-31T07:59:31;6.90;;;4.30;;
7074;SDS011;3578;51.568;6.932;2023-08-31T08:01:59;9.23;;;3.73;;
7074;SDS011;3578;51.568;6.932;2023-08-31T08:04:26;4.73;;;3.40;;
7074;SDS011;3578;51.568;6.932;2023-08-31T08:06:54;4.00;;;3.50;;
7074;SDS011;3578;51.568;6.932;2023-08-31T08:09:21;4.60;;;3.30;;
7074;SDS011;3578;51.568;6.932;2023-08-31T08:11:48;4.33;;;3.37;;
7074;SDS011;3578;51.568;6.932;2023-08-31T08:14:15;6.90;;;3.30;;
7074;SDS011;3578;51.568;6.932;2023-08-31T08:16:43;3.80;;;3.00;;
7074;SDS011;3578;51.568;6.932;2023-08-31T08:19:11;4.57;;;3.00;;
7074;SDS011;3578;51.568;6.932;2023-08-31T08:21:38;4.60;;;3.20;;
7074;SDS011;3578;51.568;6.932;2023-08-31T08:24:05;4.30;;;3.77;;
7074;SDS011;3578;51.568;6.932;2023-08-31T08:26:33;3.40;;;3.10;;
7074;SDS011;3578;51.568;6.932;2023-08-31T08:28:59;6.37;;;3.23;;
7074;SDS011;3578;51.568;6.932;2023-08-31T08:31:27;7.87;;;3.43;;
7074;SDS011;3578;51.568;6.932;2023-08-31T08:33:54;5.73;;;3.17;;
7074;SDS011;3578;51.568;6.932;2023-08-31T08:36:22;3.53;;;3.23;;
7074;SDS011;3578;51.568;6.932;2023-08-31T08:38:49;6.57;;;2.70;;
7074;SDS011;3578;51.568;6.932;2023-08-31T08:41:16;6.37;;;3.60;;
7074;SDS011;3578;51.568;6.932;2023-08-31T08:43:48;3.60;;;3.00;;
7074;SDS011;3578;51.568;6.932;2023-08-31T08:46:17;4.60;;;2.70;;
7074;SDS011;3578;51.568;6.932;2023-08-31T08:48:44;3.93;;;3.00;;
7074;SDS011;3578;51.568;6.932;2023-08-31T08:51:14;4.53;;;3.30;;
7074;SDS011;3578;51.568;6.932;2023-08-31T08:53:43;2.90;;;2.60;;
7074;SDS011;3578;51.568;6.932;2023-08-31T08:56:11;3.37;;;3.07;;
7074;SDS011;3578;51.568;6.932;2023-08-31T08:58:38;6.50;;;2.87;;
7074;SDS011;3578;51.568;6.932;2023-08-31T09:01:05;4.03;;;2.27;;
7074;SDS011;3578;51.568;6.932;2023-08-31T09:03:34;6.50;;;2.40;;
7074;SDS011;3578;51.568;6.932;2023-08-31T09:06:01;3.13;;;2.10;;
7074;SDS011;3578;51.568;6.932;2023-08-31T09:08:33;4.27;;;2.63;;
7074;SDS011;3578;51.568;6.932;2023-08-31T09:11:03;3.37;;;2.37;;
7074;SDS011;3578;51.568;6.932;2023-08-31T09:13:31;3.63;;;2.80;;
7074;SDS011;3578;51.568;6.932;2023-08-31T09:15:59;2.40;;;1.80;;
7074;SDS011;3578;51.568;6.932;2023-08-31T09:18:26;7.43;;;2.60;;
7074;SDS011;3578;51.568;6.932;2023-08-31T09:20:55;3.67;;;2.97;;
7074;SDS011;3578;51.568;6.932;2023-08-31T09:23:22;9.23;;;2.43;;
7074;SDS011;3578;51.568;6.932;2023-08-31T09:25:51;4.00;;;2.20;;
7074;SDS011;3578;51.568;6.932;2023-08-31T09:28:21;4.87;;;2.20;;
7074;SDS011;3578;51.568;6.932;2023-08-31T09:30:51;5.50;;;2.63;;
7074;SDS011;3578;51.568;6.932;2023-08-31T09:33:19;2.70;;;2.50;;
7074;SDS011;3578;51.568;6.932;2023-08-31T09:35:48;3.90;;;2.50;;
7074;SDS011;3578;51.568;6.932;2023-08-31T09:38:16;5.70;;;2.27;;
7074;SDS011;3578;51.568;6.932;2023-08-31T09:40:44;4.43;;;2.23;;
7074;SDS011;3578;51.568;6.932;2023-08-31T09:43:11;19.30;;;4.07;;
7074;SDS011;3578;51.568;6.932;2023-08-31T09:45:39;7.27;;;2.97;;
7074;SDS011;3578;51.568;6.932;2023-08-31T09:48:06;2.97;;;2.50;;
7074;SDS011;3578;51.568;6.932;2023-08-31T09:50:34;4.37;;;2.70;;
7074;SDS011;3578;51.568;6.932;2023-08-31T09:53:03;2.67;;;2.40;;
7074;SDS011;3578;51.568;6.932;2023-08-31T09:55:35;7.50;;;2.50;;
7074;SDS011;3578;51.568;6.932;2023-08-31T09:58:07;3.23;;;2.40;;
7074;SDS011;3578;51.568;6.932;2023-08-31T10:00:35;5.33;;;2.43;;
7074;SDS011;3578;51.568;6.932;2023-08-31T10:03:05;3.53;;;2.10;;
7074;SDS011;3578;51.568;6.932;2023-08-31T10:05:32;8.00;;;2.13;;
7074;SDS011;3578;51.568;6.932;2023-08-31T10:07:59;4.70;;;1.73;;
7074;SDS011;3578;51.568;6.932;2023-08-31T10:10:27;10.50;;;2.43;;
7074;SDS011;3578;51.568;6.932;2023-08-31T10:12:55;8.20;;;2.07;;
7074;SDS011;3578;51.568;6.932;2023-08-31T10:15:24;5.60;;;2.47;;
7074;SDS011;3578;51.568;6.932;2023-08-31T10:17:58;2.80;;;1.90;;
7074;SDS011;3578;51.568;6.932;2023-08-31T10:20:28;2.90;;;2.13;;
7074;SDS011;3578;51.568;6.932;2023-08-31T10:22:56;3.43;;;1.57;;
7074;SDS011;3578;51.568;6.932;2023-08-31T10:25:24;3.90;;;1.80;;
7074;SDS011;3578;51.568;6.932;2023-08-31T10:27:51;2.17;;;1.60;;
7074;SDS011;3578;51.568;6.932;2023-08-31T10:30:25;4.60;;;2.20;;
7074;SDS011;3578;51.568;6.932;2023-08-31T10:35:49;8.17;;;2.43;;
7074;SDS011;3578;51.568;6.932;2023-08-31T10:38:23;4.97;;;2.27;;
7074;SDS011;3578;51.568;6.932;2023-08-31T10:41:02;4.07;;;1.97;;
7074;SDS011;3578;51.568;6.932;2023-08-31T10:43:50;2.03;;;1.83;;
7074;SDS011;3578;51.568;6.932;2023-08-31T10:46:20;6.10;;;1.80;;
7074;SDS011;3578;51.568;6.932;2023-08-31T10:48:53;4.60;;;1.77;;
7074;SDS011;3578;51.568;6.932;2023-08-31T10:51:23;2.47;;;1.70;;
7074;SDS011;3578;51.568;6.932;2023-08-31T10:53:52;5.30;;;2.03;;
7074;SDS011;3578;51.568;6.932;2023-08-31T10:56:31;2.30;;;1.60;;
7074;SDS011;3578;51.568;6.932;2023-08-31T10:58:58;5.87;;;2.33;;
7074;SDS011;3578;51.568;6.932;2023-08-31T11:04:21;2.33;;;2.10;;
7074;SDS011;3578;51.568;6.932;2023-08-31T11:06:51;3.90;;;1.93;;
7074;SDS011;3578;51.568;6.932;2023-08-31T11:09:40;2.10;;;1.60;;
7074;SDS011;3578;51.568;6.932;2023-08-31T11:12:08;4.70;;;2.10;;
7074;SDS011;3578;51.568;6.932;2023-08-31T11:14:36;9.70;;;3.47;;
7074;SDS011;3578;51.568;6.932;2023-08-31T11:17:03;2.10;;;1.80;;
7074;SDS011;3578;51.568;6.932;2023-08-31T11:19:31;7.37;;;6.70;;
7074;SDS011;3578;51.568;6.932;2023-08-31T11:22:01;14.47;;;4.90;;
7074;SDS011;3578;51.568;6.932;2023-08-31T11:24:29;6.40;;;4.27;;
7074;SDS011;3578;51.568;6.932;2023-08-31T11:26:56;8.33;;;6.00;;
7074;SDS011;3578;51.568;6.932;2023-08-31T11:29:23;3.77;;;2.50;;
7074;SDS011;3578;51.568;6.932;2023-08-31T11:31:50;7.20;;;2.70;;
7074;SDS011;3578;51.568;6.932;2023-08-31T11:34:17;4.23;;;2.70;;
7074;SDS011;3578;51.568;6.932;2023-08-31T11:36:45;6.40;;;2.20;;
7074;SDS011;3578;51.568;6.932;2023-08-31T11:39:14;3.93;;;3.00;;
7074;SDS011;3578;51.568;6.932;2023-08-31T11:41:43;2.80;;;2.60;;
7074;SDS011;3578;51.568;6.932;2023-08-31T11:44:12;4.43;;;2.50;;
7074;SDS011;3578;51.568;6.932;2023-08-31T11:46:42;5.80;;;2.13;;
7074;SDS011;3578;51.568;6.932;2023-08-31T11:49:13;4.37;;;2.53;;
7074;SDS011;3578;51.568;6.932;2023-08-31T11:51:40;3.93;;;2.33;;
7074;SDS011;3578;51.568;6.932;2023-08-31T11:54:08;7.43;;;2.07;;
7074;SDS011;3578;51.568;6.932;2023-08-31T11:56:41;3.80;;;2.17;;
7074;SDS011;3578;51.568;6.932;2023-08-31T11:59:09;6.43;;;2.47;;
7074;SDS011;3578;51.568;6.932;2023-08-31T12:01:38;6.43;;;2.50;;
7074;SDS011;3578;51.568;6.932;2023-08-31T12:04:09;2.90;;;1.73;;
7074;SDS011;3578;51.568;6.932;2023-08-31T12:06:38;2.00;;;1.80;;
7074;SDS011;3578;51.568;6.932;2023-08-31T12:09:06;3.30;;;2.70;;
7074;SDS011;3578;51.568;6.932;2023-08-31T12:11:33;4.57;;;2.60;;
7074;SDS011;3578;51.568;6.932;2023-08-31T12:14:03;2.60;;;1.70;;
7074;SDS011;3578;51.568;6.932;2023-08-31T12:16:44;3.50;;;1.90;;
7074;SDS011;3578;51.568;6.932;2023-08-31T12:19:11;2.10;;;1.60;;
7074;SDS011;3578;51.568;6.932;2023-08-31T12:21:38;1.30;;;1.20;;
7074;SDS011;3578;51.568;6.932;2023-08-31T12:24:05;6.13;;;2.13;;
7074;SDS011;3578;51.568;6.932;2023-08-31T12:26:33;4.07;;;1.80;;
7074;SDS011;3578;51.568;6.932;2023-08-31T12:29:02;1.60;;;1.47;;
7074;SDS011;3578;51.568;6.932;2023-08-31T12:31:30;4.03;;;2.07;;
7074;SDS011;3578;51.568;6.932;2023-08-31T12:33:58;6.50;;;2.20;;
7074;SDS011;3578;51.568;6.932;2023-08-31T12:36:25;5.00;;;2.20;;
7074;SDS011;3578;51.568;6.932;2023-08-31T12:38:52;1.93;;;1.80;;
7074;SDS011;3578;51.568;6.932;2023-08-31T12:41:19;3.53;;;1.93;;
7074;SDS011;3578;51.568;6.932;2023-08-31T12:43:46;2.40;;;1.87;;
7074;SDS011;3578;51.568;6.932;2023-08-31T12:46:14;4.07;;;1.63;;
7074;SDS011;3578;51.568;6.932;2023-08-31T12:48:41;2.60;;;1.83;;
7074;SDS011;3578;51.568;6.932;2023-08-31T12:51:08;4.50;;;1.80;;
7074;SDS011;3578;51.568;6.932;2023-08-31T12:53:38;3.70;;;2.10;;
7074;SDS011;3578;51.568;6.932;2023-08-31T12:56:05;5.00;;;2.23;;
7074;SDS011;3578;51.568;6.932;2023-08-31T12:58:32;3.73;;;2.27;;
7074;SDS011;3578;51.568;6.932;2023-08-31T13:00:59;2.93;;;2.00;;
7074;SDS011;3578;51.568;6.932;2023-08-31T13:03:28;13.03;;;2.33;;
7074;SDS011;3578;51.568;6.932;2023-08-31T13:05:55;5.40;;;2.30;;
7074;SDS011;3578;51.568;6.932;2023-08-31T13:08:22;3.50;;;1.90;;
7074;SDS011;3578;51.568;6.932;2023-08-31T13:10:52;5.40;;;2.07;;
7074;SDS011;3578;51.568;6.932;2023-08-31T13:13:20;4.20;;;2.43;;
7074;SDS011;3578;51.568;6.932;2023-08-31T13:15:47;6.07;;;1.83;;
7074;SDS011;3578;51.568;6.932;2023-08-31T13:18:15;2.83;;;1.90;;
7074;SDS011;3578;51.568;6.932;2023-08-31T13:20:49;5.60;;;2.17;;
7074;SDS011;3578;51.568;6.932;2023-08-31T13:23:16;1.97;;;1.80;;
7074;SDS011;3578;51.568;6.932;2023-08-31T13:25:43;4.03;;;2.00;;
7074;SDS011;3578;51.568;6.932;2023-08-31T13:28:10;2.80;;;2.27;;
7074;SDS011;3578;51.568;6.932;2023-08-31T13:30:38;2.80;;;1.77;;
7074;SDS011;3578;51.568;6.932;2023-08-31T13:33:06;2.37;;;1.87;;
7074;SDS011;3578;51.568;6.932;2023-08-31T13:35:33;1.80;;;1.70;;
7074;SDS011;3578;51.568;6.932;2023-08-31T13:38:02;1.93;;;1.83;;
7074;SDS011;3578;51.568;6.932;2023-08-31T13:40:29;5.17;;;1.73;;
7074;SDS011;3578;51.568;6.932;2023-08-31T13:42:56;1.97;;;1.87;;
7074;SDS011;3578;51.568;6.932;2023-08-31T13:45:28;2.10;;;1.53;;
7074;SDS011;3578;51.568;6.932;2023-08-31T13:47:56;2.30;;;1.80;;
7074;SDS011;3578;51.568;6.932;2023-08-31T13:50:24;2.23;;;2.03;;
7074;SDS011;3578;51.568;6.932;2023-08-31T13:52:51;3.27;;;1.90;;
7074;SDS011;3578;51.568;6.932;2023-08-31T13:55:20;1.80;;;1.70;;
7074;SDS011;3578;51.568;6.932;2023-08-31T13:57:48;6.37;;;2.00;;
7074;SDS011;3578;51.568;6.932;2023-08-31T14:00:15;3.17;;;2.23;;
7074;SDS011;3578;51.568;6.932;2023-08-31T14:02:43;4.53;;;2.33;;
7074;SDS011;3578;51.568;6.932;2023-08-31T14:05:10;4.63;;;2.30;;
7074;SDS011;3578;51.568;6.932;2023-08-31T14:07:37;6.17;;;2.37;;
7074;SDS011;3578;51.568;6.932;2023-08-31T14:10:04;9.47;;;3.93;;
7074;SDS011;3578;51.568;6.932;2023-08-31T14:12:34;5.17;;;3.33;;
7074;SDS011;3578;51.568;6.932;2023-08-31T14:15:01;5.30;;;3.23;;
7074;SDS011;3578;51.568;6.932;2023-08-31T14:17:29;3.80;;;3.37;;
7074;SDS011;3578;51.568;6.932;2023-08-31T14:19:58;4.20;;;3.77;;
7074;SDS011;3578;51.568;6.932;2023-08-31T14:22:30;4.60;;;3.93;;
7074;SDS011;3578;51.568;6.932;2023-08-31T14:24:57;4.60;;;4.20;;
7074;SDS011;3578;51.568;6.932;2023-08-31T14:27:25;5.73;;;4.10;;
7074;SDS011;3578;51.568;6.932;2023-08-31T14:29:56;9.93;;;4.60;;
7074;SDS011;3578;51.568;6.932;2023-08-31T14:32:23;8.10;;;4.80;;
7074;SDS011;3578;51.568;6.932;2023-08-31T14:34:50;5.73;;;4.37;;
7074;SDS011;3578;51.568;6.932;2023-08-31T14:37:17;6.10;;;5.60;;
7074;SDS011;3578;51.568;6.932;2023-08-31T14:39:44;10.30;;;6.03;;
7074;SDS011;3578;51.568;6.932;2023-08-31T14:42:11;7.27;;;5.93;;
7074;SDS011;3578;51.568;6.932;2023-08-31T14:44:40;11.23;;;6.80;;
7074;SDS011;3578;51.568;6.932;2023-08-31T14:47:08;11.17;;;7.10;;
7074;SDS011;3578;51.568;6.932;2023-08-31T14:49:38;7.90;;;7.20;;
7074;SDS011;3578;51.568;6.932;2023-08-31T14:52:05;8.00;;;7.20;;
7074;SDS011;3578;51.568;6.932;2023-08-31T14:54:33;9.17;;;8.23;;
7074;SDS011;3578;51.568;6.932;2023-08-31T14:57:00;13.00;;;8.20;;
7074;SDS011;3578;51.568;6.932;2023-08-31T14:59:28;13.67;;;8.10;;
7074;SDS011;3578;51.568;6.932;2023-08-31T15:01:55;10.10;;;8.17;;
7074;SDS011;3578;51.568;6.932;2023-08-31T15:04:24;10.00;;;9.00;;
7074;SDS011;3578;51.568;6.932;2023-08-31T15:06:53;15.03;;;9.53;;
7074;SDS011;3578;51.568;6.932;2023-08-31T15:09:21;12.30;;;8.03;;
7074;SDS011;3578;51.568;6.932;2023-08-31T15:11:48;11.90;;;8.33;;
7074;SDS011;3578;51.568;6.932;2023-08-31T15:14:15;7.87;;;7.07;;
7074;SDS011;3578;51.568;6.932;2023-08-31T15:16:42;8.03;;;6.27;;